sensor_id;sensor_type;location;lat;lon;timestamp;P1;durP1;ratioP1;P2;durP2;ratioP2
71665;SDS011;59503;53.486;10.196;2022-09-29T00:00:31;25.60;;;10.67;;
71665;SDS011;59503;53.486;10.196;2022-09-29T00:02:57;24.70;;;10.37;;
71665;SDS011;59503;53.486;10.196;2022-09-29T00:05:22;23.70;;;10.20;;
71665;SDS011;59503;53.486;10.196;2022-09-29T00:07:48;25.73;;;10.27;;
71665;SDS011;59503;53.486;10.196;2022-09-29T00:10:13;23.63;;;9.73;;
71665;SDS011;59503;53.486;10.196;2022-09-29T00:12:39;26.53;;;10.47;;
71665;SDS011;59503;53.486;10.196;2022-09-29T00:15:05;22.65;;;9.45;;
71665;SDS011;59503;53.486;10.196;2022-09-29T00:17:31;23.27;;;9.80;;
71665;SDS011;59503;53.486;10.196;2022-09-29T00:19:56;23.02;;;9.88;;
71665;SDS011;59503;53.486;10.196;2022-09-29T00:22:22;28.57;;;10.50;;
71665;SDS011;59503;53.486;10.196;2022-09-29T00:24:47;35.57;;;12.73;;
71665;SDS011;59503;53.486;10.196;2022-09-29T00:27:13;29.20;;;10.73;;
71665;SDS011;59503;53.486;10.196;2022-09-29T00:29:40;30.27;;;10.27;;
71665;SDS011;59503;53.486;10.196;2022-09-29T00:32:05;27.23;;;10.10;;
71665;SDS011;59503;53.486;10.196;2022-09-29T00:34:31;24.88;;;9.57;;
71665;SDS011;59503;53.486;10.196;2022-09-29T00:36:56;24.87;;;9.87;;
71665;SDS011;59503;53.486;10.196;2022-09-29T00:39:21;23.40;;;9.47;;
71665;SDS011;59503;53.486;10.196;2022-09-29T00:41:47;24.63;;;9.77;;
71665;SDS011;59503;53.486;10.196;2022-09-29T00:54:44;25.20;;;9.25;;
71665;SDS011;59503;53.486;10.196;2022-09-29T00:57:12;20.70;;;8.68;;
71665;SDS011;59503;53.486;10.196;2022-09-29T00:59:46;23.67;;;9.20;;
71665;SDS011;59503;53.486;10.196;2022-09-29T01:02:17;23.33;;;9.33;;
71665;SDS011;59503;53.486;10.196;2022-09-29T01:04:44;23.73;;;10.02;;
71665;SDS011;59503;53.486;10.196;2022-09-29T01:07:12;18.85;;;8.52;;
71665;SDS011;59503;53.486;10.196;2022-09-29T01:09:38;19.60;;;8.35;;
71665;SDS011;59503;53.486;10.196;2022-09-29T01:12:07;25.88;;;10.00;;
71665;SDS011;59503;53.486;10.196;2022-09-29T01:14:33;22.17;;;8.83;;
71665;SDS011;59503;53.486;10.196;2022-09-29T01:17:01;21.90;;;9.70;;
71665;SDS011;59503;53.486;10.196;2022-09-29T01:30:51;38.38;;;11.30;;
71665;SDS011;59503;53.486;10.196;2022-09-29T01:41:43;33.05;;;10.60;;
71665;SDS011;59503;53.486;10.196;2022-09-29T01:46:47;25.05;;;9.10;;
71665;SDS011;59503;53.486;10.196;2022-09-29T01:49:17;32.08;;;9.85;;
71665;SDS011;59503;53.486;10.196;2022-09-29T01:54:23;36.00;;;10.80;;
71665;SDS011;59503;53.486;10.196;2022-09-29T01:56:57;31.08;;;9.52;;
71665;SDS011;59503;53.486;10.196;2022-09-29T01:59:33;30.60;;;9.38;;
71665;SDS011;59503;53.486;10.196;2022-09-29T02:02:10;28.27;;;9.57;;
71665;SDS011;59503;53.486;10.196;2022-09-29T02:04:40;35.87;;;10.20;;
71665;SDS011;59503;53.486;10.196;2022-09-29T02:07:20;26.60;;;9.40;;
71665;SDS011;59503;53.486;10.196;2022-09-29T02:09:51;31.05;;;10.32;;
71665;SDS011;59503;53.486;10.196;2022-09-29T02:12:22;30.15;;;9.65;;
71665;SDS011;59503;53.486;10.196;2022-09-29T02:14:53;28.27;;;9.68;;
71665;SDS011;59503;53.486;10.196;2022-09-29T02:17:21;28.63;;;9.33;;
71665;SDS011;59503;53.486;10.196;2022-09-29T02:19:50;30.48;;;9.82;;
71665;SDS011;59503;53.486;10.196;2022-09-29T02:22:16;28.77;;;10.00;;
71665;SDS011;59503;53.486;10.196;2022-09-29T02:24:42;25.40;;;8.45;;
71665;SDS011;59503;53.486;10.196;2022-09-29T02:27:08;28.53;;;8.67;;
71665;SDS011;59503;53.486;10.196;2022-09-29T02:29:35;25.00;;;8.95;;
71665;SDS011;59503;53.486;10.196;2022-09-29T02:32:02;27.48;;;9.07;;
71665;SDS011;59503;53.486;10.196;2022-09-29T02:34:30;27.33;;;9.52;;
71665;SDS011;59503;53.486;10.196;2022-09-29T02:37:04;35.37;;;10.87;;
71665;SDS011;59503;53.486;10.196;2022-09-29T02:39:52;28.77;;;9.88;;
71665;SDS011;59503;53.486;10.196;2022-09-29T02:42:32;35.05;;;11.18;;
71665;SDS011;59503;53.486;10.196;2022-09-29T02:45:33;34.58;;;9.85;;
71665;SDS011;59503;53.486;10.196;2022-09-29T02:48:08;54.88;;;13.18;;
71665;SDS011;59503;53.486;10.196;2022-09-29T02:50:57;43.23;;;10.93;;
71665;SDS011;59503;53.486;10.196;2022-09-29T02:53:35;35.10;;;10.70;;
71665;SDS011;59503;53.486;10.196;2022-09-29T03:01:31;25.33;;;9.63;;
71665;SDS011;59503;53.486;10.196;2022-09-29T03:03:57;38.10;;;11.52;;
71665;SDS011;59503;53.486;10.196;2022-09-29T03:06:23;37.70;;;9.27;;
71665;SDS011;59503;53.486;10.196;2022-09-29T03:08:49;28.73;;;8.95;;
71665;SDS011;59503;53.486;10.196;2022-09-29T03:11:14;25.73;;;8.30;;
71665;SDS011;59503;53.486;10.196;2022-09-29T03:13:40;24.53;;;8.43;;
71665;SDS011;59503;53.486;10.196;2022-09-29T03:16:05;30.05;;;9.75;;
71665;SDS011;59503;53.486;10.196;2022-09-29T03:18:31;27.27;;;9.20;;
71665;SDS011;59503;53.486;10.196;2022-09-29T03:20:56;26.83;;;9.90;;
71665;SDS011;59503;53.486;10.196;2022-09-29T03:23:21;23.85;;;8.75;;
71665;SDS011;59503;53.486;10.196;2022-09-29T03:25:47;22.57;;;8.70;;
71665;SDS011;59503;53.486;10.196;2022-09-29T03:28:12;24.97;;;8.50;;
71665;SDS011;59503;53.486;10.196;2022-09-29T03:30:38;28.77;;;9.73;;
71665;SDS011;59503;53.486;10.196;2022-09-29T03:33:03;40.35;;;11.02;;
71665;SDS011;59503;53.486;10.196;2022-09-29T03:35:29;55.20;;;12.53;;
71665;SDS011;59503;53.486;10.196;2022-09-29T03:37:56;48.63;;;11.93;;
71665;SDS011;59503;53.486;10.196;2022-09-29T03:40:23;54.05;;;12.93;;
71665;SDS011;59503;53.486;10.196;2022-09-29T03:42:48;73.40;;;15.07;;
71665;SDS011;59503;53.486;10.196;2022-09-29T03:45:13;77.70;;;15.52;;
71665;SDS011;59503;53.486;10.196;2022-09-29T03:47:39;58.23;;;13.40;;
71665;SDS011;59503;53.486;10.196;2022-09-29T03:50:04;50.93;;;11.80;;
71665;SDS011;59503;53.486;10.196;2022-09-29T03:52:30;39.13;;;11.00;;
71665;SDS011;59503;53.486;10.196;2022-09-29T03:54:55;34.20;;;9.37;;
71665;SDS011;59503;53.486;10.196;2022-09-29T03:57:21;34.97;;;10.03;;
71665;SDS011;59503;53.486;10.196;2022-09-29T03:59:46;31.43;;;9.97;;
71665;SDS011;59503;53.486;10.196;2022-09-29T04:02:12;31.10;;;9.73;;
71665;SDS011;59503;53.486;10.196;2022-09-29T04:04:38;31.85;;;9.07;;
71665;SDS011;59503;53.486;10.196;2022-09-29T04:07:03;32.60;;;10.00;;
71665;SDS011;59503;53.486;10.196;2022-09-29T04:09:28;28.50;;;9.10;;
71665;SDS011;59503;53.486;10.196;2022-09-29T04:11:55;41.83;;;10.77;;
71665;SDS011;59503;53.486;10.196;2022-09-29T04:14:20;40.50;;;11.10;;
71665;SDS011;59503;53.486;10.196;2022-09-29T04:16:46;30.75;;;8.95;;
71665;SDS011;59503;53.486;10.196;2022-09-29T04:19:11;31.07;;;9.07;;
71665;SDS011;59503;53.486;10.196;2022-09-29T04:21:36;41.07;;;11.20;;
71665;SDS011;59503;53.486;10.196;2022-09-29T04:24:02;46.08;;;11.32;;
71665;SDS011;59503;53.486;10.196;2022-09-29T04:26:27;53.33;;;12.03;;
71665;SDS011;59503;53.486;10.196;2022-09-29T04:28:52;45.27;;;11.37;;
71665;SDS011;59503;53.486;10.196;2022-09-29T04:31:19;41.05;;;10.43;;
71665;SDS011;59503;53.486;10.196;2022-09-29T04:33:45;30.23;;;9.50;;
71665;SDS011;59503;53.486;10.196;2022-09-29T04:36:10;26.47;;;8.93;;
71665;SDS011;59503;53.486;10.196;2022-09-29T04:38:36;26.60;;;8.27;;
71665;SDS011;59503;53.486;10.196;2022-09-29T04:41:01;32.47;;;10.07;;
71665;SDS011;59503;53.486;10.196;2022-09-29T04:43:27;36.85;;;9.48;;
71665;SDS011;59503;53.486;10.196;2022-09-29T04:45:52;37.07;;;10.07;;
71665;SDS011;59503;53.486;10.196;2022-09-29T04:48:26;39.13;;;10.15;;
71665;SDS011;59503;53.486;10.196;2022-09-29T04:50:51;28.03;;;8.60;;
71665;SDS011;59503;53.486;10.196;2022-09-29T04:53:18;30.65;;;8.57;;
71665;SDS011;59503;53.486;10.196;2022-09-29T04:55:44;29.47;;;9.17;;
71665;SDS011;59503;53.486;10.196;2022-09-29T04:58:09;26.57;;;8.63;;
71665;SDS011;59503;53.486;10.196;2022-09-29T05:00:35;26.67;;;8.43;;
71665;SDS011;59503;53.486;10.196;2022-09-29T05:03:01;29.80;;;9.40;;
71665;SDS011;59503;53.486;10.196;2022-09-29T05:05:27;29.65;;;8.45;;
71665;SDS011;59503;53.486;10.196;2022-09-29T05:07:53;27.40;;;8.63;;
71665;SDS011;59503;53.486;10.196;2022-09-29T05:10:18;23.65;;;8.07;;
71665;SDS011;59503;53.486;10.196;2022-09-29T05:12:49;28.70;;;9.90;;
71665;SDS011;59503;53.486;10.196;2022-09-29T05:15:16;27.50;;;9.07;;
71665;SDS011;59503;53.486;10.196;2022-09-29T05:17:42;35.30;;;9.67;;
71665;SDS011;59503;53.486;10.196;2022-09-29T05:20:08;35.22;;;9.43;;
71665;SDS011;59503;53.486;10.196;2022-09-29T05:22:34;39.35;;;10.40;;
71665;SDS011;59503;53.486;10.196;2022-09-29T05:24:59;39.20;;;10.67;;
71665;SDS011;59503;53.486;10.196;2022-09-29T05:27:25;33.63;;;9.93;;
71665;SDS011;59503;53.486;10.196;2022-09-29T05:29:51;41.38;;;11.55;;
71665;SDS011;59503;53.486;10.196;2022-09-29T05:32:16;40.70;;;11.13;;
71665;SDS011;59503;53.486;10.196;2022-09-29T05:34:41;39.50;;;10.60;;
71665;SDS011;59503;53.486;10.196;2022-09-29T05:37:07;50.37;;;11.47;;
71665;SDS011;59503;53.486;10.196;2022-09-29T05:39:32;41.72;;;11.32;;
71665;SDS011;59503;53.486;10.196;2022-09-29T05:41:59;50.35;;;12.95;;
71665;SDS011;59503;53.486;10.196;2022-09-29T05:44:26;41.30;;;10.50;;
71665;SDS011;59503;53.486;10.196;2022-09-29T05:46:51;48.83;;;11.52;;
71665;SDS011;59503;53.486;10.196;2022-09-29T05:49:17;64.20;;;13.40;;
71665;SDS011;59503;53.486;10.196;2022-09-29T05:51:43;61.20;;;14.00;;
71665;SDS011;59503;53.486;10.196;2022-09-29T05:54:09;63.37;;;14.03;;
71665;SDS011;59503;53.486;10.196;2022-09-29T05:56:34;48.33;;;12.45;;
71665;SDS011;59503;53.486;10.196;2022-09-29T05:58:59;49.07;;;12.00;;
71665;SDS011;59503;53.486;10.196;2022-09-29T06:01:25;44.83;;;11.87;;
71665;SDS011;59503;53.486;10.196;2022-09-29T06:03:54;49.72;;;12.27;;
71665;SDS011;59503;53.486;10.196;2022-09-29T06:06:21;49.28;;;11.95;;
71665;SDS011;59503;53.486;10.196;2022-09-29T06:08:49;52.28;;;11.88;;
71665;SDS011;59503;53.486;10.196;2022-09-29T06:11:16;50.95;;;12.00;;
71665;SDS011;59503;53.486;10.196;2022-09-29T06:13:52;67.23;;;14.07;;
71665;SDS011;59503;53.486;10.196;2022-09-29T06:16:20;69.78;;;14.70;;
71665;SDS011;59503;53.486;10.196;2022-09-29T06:18:47;58.22;;;13.27;;
71665;SDS011;59503;53.486;10.196;2022-09-29T06:21:14;78.97;;;16.38;;
71665;SDS011;59503;53.486;10.196;2022-09-29T06:23:42;72.23;;;16.00;;
71665;SDS011;59503;53.486;10.196;2022-09-29T06:26:09;76.60;;;16.83;;
71665;SDS011;59503;53.486;10.196;2022-09-29T06:28:37;79.85;;;17.25;;
71665;SDS011;59503;53.486;10.196;2022-09-29T06:31:06;89.30;;;17.27;;
71665;SDS011;59503;53.486;10.196;2022-09-29T06:33:36;83.57;;;17.03;;
71665;SDS011;59503;53.486;10.196;2022-09-29T06:36:02;87.57;;;18.48;;
71665;SDS011;59503;53.486;10.196;2022-09-29T06:38:51;74.95;;;17.92;;
71665;SDS011;59503;53.486;10.196;2022-09-29T06:41:16;80.77;;;18.90;;
71665;SDS011;59503;53.486;10.196;2022-09-29T06:43:41;72.77;;;17.10;;
71665;SDS011;59503;53.486;10.196;2022-09-29T06:46:07;72.70;;;16.70;;
71665;SDS011;59503;53.486;10.196;2022-09-29T06:48:32;64.70;;;17.55;;
71665;SDS011;59503;53.486;10.196;2022-09-29T06:50:58;53.73;;;15.43;;
71665;SDS011;59503;53.486;10.196;2022-09-29T06:53:24;55.40;;;15.38;;
71665;SDS011;59503;53.486;10.196;2022-09-29T06:55:51;47.17;;;15.37;;
71665;SDS011;59503;53.486;10.196;2022-09-29T06:58:17;46.47;;;15.57;;
71665;SDS011;59503;53.486;10.196;2022-09-29T07:00:43;44.93;;;14.40;;
71665;SDS011;59503;53.486;10.196;2022-09-29T07:03:08;55.03;;;16.35;;
71665;SDS011;59503;53.486;10.196;2022-09-29T07:05:34;42.17;;;14.43;;
71665;SDS011;59503;53.486;10.196;2022-09-29T07:07:59;34.90;;;14.30;;
71665;SDS011;59503;53.486;10.196;2022-09-29T07:10:25;42.85;;;15.15;;
71665;SDS011;59503;53.486;10.196;2022-09-29T07:12:51;39.93;;;15.10;;
71665;SDS011;59503;53.486;10.196;2022-09-29T07:15:16;35.80;;;14.25;;
71665;SDS011;59503;53.486;10.196;2022-09-29T07:17:41;32.73;;;14.50;;
71665;SDS011;59503;53.486;10.196;2022-09-29T07:20:07;31.37;;;14.13;;
71665;SDS011;59503;53.486;10.196;2022-09-29T07:22:32;30.52;;;13.93;;
71665;SDS011;59503;53.486;10.196;2022-09-29T07:24:58;27.27;;;13.37;;
71665;SDS011;59503;53.486;10.196;2022-09-29T07:27:23;28.57;;;13.07;;
71665;SDS011;59503;53.486;10.196;2022-09-29T07:29:49;30.17;;;14.43;;
71665;SDS011;59503;53.486;10.196;2022-09-29T07:32:15;30.08;;;13.38;;
71665;SDS011;59503;53.486;10.196;2022-09-29T07:34:42;29.90;;;14.90;;
71665;SDS011;59503;53.486;10.196;2022-09-29T07:37:08;27.42;;;14.57;;
71665;SDS011;59503;53.486;10.196;2022-09-29T07:39:34;25.90;;;14.77;;
71665;SDS011;59503;53.486;10.196;2022-09-29T07:42:01;24.75;;;13.23;;
71665;SDS011;59503;53.486;10.196;2022-09-29T07:44:27;24.73;;;13.60;;
71665;SDS011;59503;53.486;10.196;2022-09-29T07:46:55;26.35;;;14.07;;
71665;SDS011;59503;53.486;10.196;2022-09-29T07:49:21;25.70;;;14.00;;
71665;SDS011;59503;53.486;10.196;2022-09-29T07:51:46;31.27;;;13.70;;
71665;SDS011;59503;53.486;10.196;2022-09-29T07:54:12;24.53;;;13.10;;
71665;SDS011;59503;53.486;10.196;2022-09-29T07:56:37;20.87;;;12.43;;
71665;SDS011;59503;53.486;10.196;2022-09-29T07:59:03;23.45;;;12.95;;
71665;SDS011;59503;53.486;10.196;2022-09-29T08:01:29;21.58;;;12.32;;
71665;SDS011;59503;53.486;10.196;2022-09-29T08:03:55;20.63;;;12.17;;
71665;SDS011;59503;53.486;10.196;2022-09-29T08:06:22;19.10;;;11.85;;
71665;SDS011;59503;53.486;10.196;2022-09-29T08:08:48;17.80;;;11.48;;
71665;SDS011;59503;53.486;10.196;2022-09-29T08:11:16;19.98;;;10.93;;
71665;SDS011;59503;53.486;10.196;2022-09-29T08:13:44;20.57;;;11.47;;
71665;SDS011;59503;53.486;10.196;2022-09-29T08:16:11;21.30;;;11.88;;
71665;SDS011;59503;53.486;10.196;2022-09-29T08:18:38;16.83;;;10.90;;
71665;SDS011;59503;53.486;10.196;2022-09-29T08:21:03;19.47;;;11.97;;
71665;SDS011;59503;53.486;10.196;2022-09-29T08:23:29;21.15;;;12.57;;
71665;SDS011;59503;53.486;10.196;2022-09-29T08:25:59;21.80;;;11.32;;
71665;SDS011;59503;53.486;10.196;2022-09-29T08:28:26;20.27;;;11.93;;
71665;SDS011;59503;53.486;10.196;2022-09-29T08:30:52;18.10;;;11.40;;
71665;SDS011;59503;53.486;10.196;2022-09-29T08:33:18;21.10;;;11.90;;
71665;SDS011;59503;53.486;10.196;2022-09-29T08:35:43;17.97;;;10.80;;
71665;SDS011;59503;53.486;10.196;2022-09-29T08:38:08;20.93;;;10.87;;
71665;SDS011;59503;53.486;10.196;2022-09-29T08:40:34;24.07;;;11.40;;
71665;SDS011;59503;53.486;10.196;2022-09-29T08:46:39;21.35;;;11.68;;
71665;SDS011;59503;53.486;10.196;2022-09-29T08:49:21;19.27;;;11.07;;
71665;SDS011;59503;53.486;10.196;2022-09-29T08:51:52;18.77;;;11.38;;
71665;SDS011;59503;53.486;10.196;2022-09-29T08:57:05;23.35;;;11.25;;
71665;SDS011;59503;53.486;10.196;2022-09-29T08:59:40;19.20;;;11.48;;
71665;SDS011;59503;53.486;10.196;2022-09-29T09:18:51;15.75;;;9.52;;
71665;SDS011;59503;53.486;10.196;2022-09-29T09:21:41;15.48;;;9.80;;
71665;SDS011;59503;53.486;10.196;2022-09-29T09:27:12;16.15;;;9.90;;
71665;SDS011;59503;53.486;10.196;2022-09-29T09:29:43;17.33;;;9.90;;
71665;SDS011;59503;53.486;10.196;2022-09-29T09:32:15;16.35;;;9.98;;
71665;SDS011;59503;53.486;10.196;2022-09-29T09:34:53;14.73;;;8.88;;
71665;SDS011;59503;53.486;10.196;2022-09-29T09:37:32;15.23;;;9.32;;
71665;SDS011;59503;53.486;10.196;2022-09-29T09:42:36;15.77;;;9.67;;
71665;SDS011;59503;53.486;10.196;2022-09-29T09:47:48;14.93;;;9.50;;
71665;SDS011;59503;53.486;10.196;2022-09-29T09:50:18;14.30;;;9.40;;
71665;SDS011;59503;53.486;10.196;2022-09-29T09:55:42;13.40;;;8.53;;
71665;SDS011;59503;53.486;10.196;2022-09-29T10:01:03;16.85;;;9.77;;
71665;SDS011;59503;53.486;10.196;2022-09-29T10:03:31;16.38;;;8.75;;
71665;SDS011;59503;53.486;10.196;2022-09-29T10:05:57;15.02;;;9.82;;
71665;SDS011;59503;53.486;10.196;2022-09-29T10:10:50;15.60;;;8.75;;
71665;SDS011;59503;53.486;10.196;2022-09-29T10:13:16;13.13;;;8.40;;
71665;SDS011;59503;53.486;10.196;2022-09-29T10:15:43;15.60;;;9.23;;
71665;SDS011;59503;53.486;10.196;2022-09-29T10:18:17;14.88;;;8.48;;
71665;SDS011;59503;53.486;10.196;2022-09-29T10:20:47;13.13;;;7.72;;
71665;SDS011;59503;53.486;10.196;2022-09-29T10:23:23;12.38;;;8.20;;
71665;SDS011;59503;53.486;10.196;2022-09-29T10:26:34;13.32;;;8.55;;
71665;SDS011;59503;53.486;10.196;2022-09-29T10:28:51;14.17;;;7.40;;
71665;SDS011;59503;53.486;10.196;2022-09-29T10:31:21;12.70;;;8.40;;
71665;SDS011;59503;53.486;10.196;2022-09-29T10:33:52;16.38;;;8.00;;
71665;SDS011;59503;53.486;10.196;2022-09-29T10:36:20;13.25;;;7.38;;
71665;SDS011;59503;53.486;10.196;2022-09-29T10:38:48;13.35;;;7.13;;
71665;SDS011;59503;53.486;10.196;2022-09-29T10:41:15;13.23;;;7.40;;
71665;SDS011;59503;53.486;10.196;2022-09-29T10:43:44;13.80;;;7.25;;
71665;SDS011;59503;53.486;10.196;2022-09-29T10:49:13;12.35;;;7.05;;
71665;SDS011;59503;53.486;10.196;2022-09-29T10:52:03;10.98;;;7.05;;
71665;SDS011;59503;53.486;10.196;2022-09-29T10:54:34;11.07;;;6.60;;
71665;SDS011;59503;53.486;10.196;2022-09-29T10:57:13;12.45;;;6.65;;
71665;SDS011;59503;53.486;10.196;2022-09-29T10:59:49;11.45;;;6.78;;
71665;SDS011;59503;53.486;10.196;2022-09-29T11:02:30;10.95;;;6.65;;
71665;SDS011;59503;53.486;10.196;2022-09-29T11:05:02;9.50;;;5.35;;
71665;SDS011;59503;53.486;10.196;2022-09-29T11:07:29;7.73;;;5.53;;
71665;SDS011;59503;53.486;10.196;2022-09-29T11:09:56;8.68;;;5.65;;
71665;SDS011;59503;53.486;10.196;2022-09-29T11:14:54;7.07;;;4.90;;
71665;SDS011;59503;53.486;10.196;2022-09-29T11:17:21;10.43;;;6.07;;
71665;SDS011;59503;53.486;10.196;2022-09-29T11:19:54;9.35;;;5.70;;
71665;SDS011;59503;53.486;10.196;2022-09-29T11:22:27;11.95;;;5.88;;
71665;SDS011;59503;53.486;10.196;2022-09-29T11:25:13;9.02;;;5.20;;
71665;SDS011;59503;53.486;10.196;2022-09-29T11:30:44;10.33;;;5.20;;
71665;SDS011;59503;53.486;10.196;2022-09-29T11:33:39;8.80;;;5.07;;
71665;SDS011;59503;53.486;10.196;2022-09-29T11:36:32;9.32;;;5.55;;
71665;SDS011;59503;53.486;10.196;2022-09-29T11:39:19;8.50;;;5.13;;
71665;SDS011;59503;53.486;10.196;2022-09-29T11:41:56;9.85;;;5.28;;
71665;SDS011;59503;53.486;10.196;2022-09-29T11:44:41;10.10;;;5.53;;
71665;SDS011;59503;53.486;10.196;2022-09-29T11:55:59;9.93;;;5.60;;
71665;SDS011;59503;53.486;10.196;2022-09-29T11:58:50;9.97;;;5.33;;
71665;SDS011;59503;53.486;10.196;2022-09-29T12:04:31;8.60;;;5.13;;
71665;SDS011;59503;53.486;10.196;2022-09-29T12:09:47;11.25;;;5.13;;
71665;SDS011;59503;53.486;10.196;2022-09-29T12:12:43;11.17;;;5.80;;
71665;SDS011;59503;53.486;10.196;2022-09-29T12:21:09;10.65;;;5.60;;
71665;SDS011;59503;53.486;10.196;2022-09-29T12:23:38;10.93;;;5.28;;
71665;SDS011;59503;53.486;10.196;2022-09-29T12:26:08;8.47;;;5.17;;
71665;SDS011;59503;53.486;10.196;2022-09-29T12:28:46;11.07;;;5.88;;
71665;SDS011;59503;53.486;10.196;2022-09-29T12:31:23;10.23;;;6.43;;
71665;SDS011;59503;53.486;10.196;2022-09-29T12:33:56;11.38;;;6.03;;
71665;SDS011;59503;53.486;10.196;2022-09-29T12:41:48;11.00;;;5.80;;
71665;SDS011;59503;53.486;10.196;2022-09-29T12:44:35;12.73;;;6.25;;
71665;SDS011;59503;53.486;10.196;2022-09-29T12:47:13;12.55;;;6.60;;
71665;SDS011;59503;53.486;10.196;2022-09-29T12:52:28;11.50;;;6.07;;
71665;SDS011;59503;53.486;10.196;2022-09-29T12:55:03;13.00;;;7.07;;
71665;SDS011;59503;53.486;10.196;2022-09-29T12:57:39;14.27;;;6.95;;
71665;SDS011;59503;53.486;10.196;2022-09-29T13:00:11;14.38;;;7.63;;
71665;SDS011;59503;53.486;10.196;2022-09-29T13:08:49;14.50;;;8.05;;
71665;SDS011;59503;53.486;10.196;2022-09-29T13:25:41;15.18;;;8.88;;
71665;SDS011;59503;53.486;10.196;2022-09-29T13:31:01;14.40;;;8.30;;
71665;SDS011;59503;53.486;10.196;2022-09-29T13:33:30;14.17;;;8.23;;
71665;SDS011;59503;53.486;10.196;2022-09-29T13:35:56;13.05;;;7.97;;
71665;SDS011;59503;53.486;10.196;2022-09-29T13:38:22;14.32;;;8.52;;
71665;SDS011;59503;53.486;10.196;2022-09-29T13:59:29;15.10;;;9.27;;
71665;SDS011;59503;53.486;10.196;2022-09-29T14:01:55;15.10;;;9.52;;
71665;SDS011;59503;53.486;10.196;2022-09-29T14:07:13;23.83;;;9.35;;
71665;SDS011;59503;53.486;10.196;2022-09-29T14:10:02;15.20;;;9.23;;
71665;SDS011;59503;53.486;10.196;2022-09-29T14:12:29;13.43;;;8.45;;
71665;SDS011;59503;53.486;10.196;2022-09-29T14:14:58;15.57;;;8.43;;
71665;SDS011;59503;53.486;10.196;2022-09-29T14:17:27;14.90;;;8.38;;
71665;SDS011;59503;53.486;10.196;2022-09-29T14:22:57;14.53;;;8.30;;
71665;SDS011;59503;53.486;10.196;2022-09-29T14:25:29;10.77;;;7.53;;
71665;SDS011;59503;53.486;10.196;2022-09-29T14:28:14;12.70;;;7.95;;
71665;SDS011;59503;53.486;10.196;2022-09-29T14:30:45;13.77;;;7.78;;
71665;SDS011;59503;53.486;10.196;2022-09-29T14:33:26;13.15;;;8.55;;
71665;SDS011;59503;53.486;10.196;2022-09-29T14:41:00;12.47;;;8.70;;
71665;SDS011;59503;53.486;10.196;2022-09-29T14:52:21;16.23;;;8.63;;
71665;SDS011;59503;53.486;10.196;2022-09-29T14:55:18;13.47;;;8.10;;
71665;SDS011;59503;53.486;10.196;2022-09-29T14:57:51;11.70;;;7.70;;
71665;SDS011;59503;53.486;10.196;2022-09-29T15:00:20;14.02;;;7.43;;
71665;SDS011;59503;53.486;10.196;2022-09-29T15:02:50;11.77;;;8.07;;
71665;SDS011;59503;53.486;10.196;2022-09-29T15:05:29;10.60;;;7.65;;
71665;SDS011;59503;53.486;10.196;2022-09-29T15:07:57;12.60;;;8.50;;
71665;SDS011;59503;53.486;10.196;2022-09-29T15:10:28;16.85;;;8.98;;
71665;SDS011;59503;53.486;10.196;2022-09-29T15:15:39;13.57;;;8.35;;
71665;SDS011;59503;53.486;10.196;2022-09-29T15:18:29;12.88;;;7.70;;
71665;SDS011;59503;53.486;10.196;2022-09-29T15:26:48;12.00;;;7.88;;
71665;SDS011;59503;53.486;10.196;2022-09-29T15:29:14;16.07;;;9.97;;
71665;SDS011;59503;53.486;10.196;2022-09-29T15:31:42;16.83;;;10.27;;
71665;SDS011;59503;53.486;10.196;2022-09-29T15:34:11;14.93;;;10.10;;
71665;SDS011;59503;53.486;10.196;2022-09-29T15:36:43;15.90;;;10.48;;
71665;SDS011;59503;53.486;10.196;2022-09-29T15:45:00;20.35;;;10.65;;
71665;SDS011;59503;53.486;10.196;2022-09-29T15:47:34;20.30;;;10.60;;
71665;SDS011;59503;53.486;10.196;2022-09-29T15:50:04;15.30;;;9.93;;
71665;SDS011;59503;53.486;10.196;2022-09-29T15:52:42;13.57;;;8.97;;
71665;SDS011;59503;53.486;10.196;2022-09-29T15:55:10;16.02;;;9.48;;
71665;SDS011;59503;53.486;10.196;2022-09-29T15:57:41;13.75;;;7.93;;
71665;SDS011;59503;53.486;10.196;2022-09-29T16:02:45;16.23;;;10.27;;
71665;SDS011;59503;53.486;10.196;2022-09-29T16:05:14;17.85;;;10.43;;
71665;SDS011;59503;53.486;10.196;2022-09-29T16:07:46;14.43;;;9.18;;
71665;SDS011;59503;53.486;10.196;2022-09-29T16:10:15;15.15;;;9.82;;
71665;SDS011;59503;53.486;10.196;2022-09-29T16:12:47;15.45;;;9.07;;
71665;SDS011;59503;53.486;10.196;2022-09-29T16:15:25;15.23;;;8.53;;
71665;SDS011;59503;53.486;10.196;2022-09-29T16:17:56;11.75;;;7.43;;
71665;SDS011;59503;53.486;10.196;2022-09-29T16:20:29;11.57;;;8.13;;
71665;SDS011;59503;53.486;10.196;2022-09-29T16:23:07;14.25;;;9.15;;
71665;SDS011;59503;53.486;10.196;2022-09-29T16:25:40;19.30;;;10.60;;
71665;SDS011;59503;53.486;10.196;2022-09-29T16:28:08;14.80;;;8.50;;
71665;SDS011;59503;53.486;10.196;2022-09-29T16:30:59;15.43;;;9.02;;
71665;SDS011;59503;53.486;10.196;2022-09-29T16:33:29;16.80;;;9.23;;
71665;SDS011;59503;53.486;10.196;2022-09-29T16:38:39;16.55;;;8.65;;
71665;SDS011;59503;53.486;10.196;2022-09-29T16:43:44;13.93;;;8.65;;
71665;SDS011;59503;53.486;10.196;2022-09-29T16:46:16;13.60;;;8.80;;
71665;SDS011;59503;53.486;10.196;2022-09-29T16:48:44;18.95;;;10.63;;
71665;SDS011;59503;53.486;10.196;2022-09-29T16:51:13;16.88;;;9.43;;
71665;SDS011;59503;53.486;10.196;2022-09-29T16:53:41;16.85;;;10.10;;
71665;SDS011;59503;53.486;10.196;2022-09-29T16:56:15;14.27;;;9.13;;
71665;SDS011;59503;53.486;10.196;2022-09-29T16:58:44;14.70;;;9.23;;
71665;SDS011;59503;53.486;10.196;2022-09-29T17:01:26;19.00;;;9.30;;
71665;SDS011;59503;53.486;10.196;2022-09-29T17:03:51;18.70;;;11.53;;
71665;SDS011;59503;53.486;10.196;2022-09-29T17:06:16;20.55;;;11.80;;
71665;SDS011;59503;53.486;10.196;2022-09-29T17:08:42;16.53;;;9.63;;
71665;SDS011;59503;53.486;10.196;2022-09-29T17:11:07;15.83;;;8.93;;
71665;SDS011;59503;53.486;10.196;2022-09-29T17:13:33;17.47;;;9.23;;
71665;SDS011;59503;53.486;10.196;2022-09-29T17:15:59;14.73;;;9.13;;
71665;SDS011;59503;53.486;10.196;2022-09-29T17:18:25;15.32;;;7.90;;
71665;SDS011;59503;53.486;10.196;2022-09-29T17:20:52;16.17;;;8.63;;
71665;SDS011;59503;53.486;10.196;2022-09-29T17:23:18;12.30;;;8.07;;
71665;SDS011;59503;53.486;10.196;2022-09-29T17:25:44;15.43;;;8.00;;
71665;SDS011;59503;53.486;10.196;2022-09-29T17:28:19;17.02;;;9.70;;
71665;SDS011;59503;53.486;10.196;2022-09-29T17:30:48;14.35;;;8.85;;
71665;SDS011;59503;53.486;10.196;2022-09-29T17:33:15;15.45;;;8.88;;
71665;SDS011;59503;53.486;10.196;2022-09-29T17:35:43;13.88;;;8.68;;
71665;SDS011;59503;53.486;10.196;2022-09-29T17:38:11;16.30;;;8.87;;
71665;SDS011;59503;53.486;10.196;2022-09-29T17:43:27;18.00;;;10.32;;
71665;SDS011;59503;53.486;10.196;2022-09-29T17:45:55;16.30;;;9.93;;
71665;SDS011;59503;53.486;10.196;2022-09-29T17:48:22;17.45;;;10.20;;
71665;SDS011;59503;53.486;10.196;2022-09-29T17:50:52;22.10;;;12.60;;
71665;SDS011;59503;53.486;10.196;2022-09-29T17:53:23;30.23;;;15.50;;